sensor_id;sensor_type;location;lat;lon;timestamp;pressure;altitude;pressure_sealevel;temperature;humidity
26937;BME280;14495;48.116;11.676;2022-10-28T00:01:21;96480.47;;;10.11;100.00
26937;BME280;14495;48.116;11.676;2022-10-28T00:03:49;96484.25;;;10.23;100.00
26937;BME280;14495;48.116;11.676;2022-10-28T00:06:17;96481.00;;;10.18;100.00
26937;BME280;14495;48.116;11.676;2022-10-28T00:08:43;96486.44;;;10.13;100.00
26937;BME280;14495;48.116;11.676;2022-10-28T00:11:18;96486.81;;;10.05;100.00
26937;BME280;14495;48.116;11.676;2022-10-28T00:13:44;96488.50;;;10.06;100.00
26937;BME280;14495;48.116;11.676;2022-10-28T00:16:16;96482.91;;;9.95;100.00
26937;BME280;14495;48.116;11.676;2022-10-28T00:18:42;96482.09;;;9.95;100.00
26937;BME280;14495;48.116;11.676;2022-10-28T00:21:11;96481.28;;;10.12;100.00
26937;BME280;14495;48.116;11.676;2022-10-28T00:23:37;96486.94;;;10.02;100.00
26937;BME280;14495;48.116;11.676;2022-10-28T00:26:07;96484.25;;;10.04;100.00
26937;BME280;14495;48.116;11.676;2022-10-28T00:28:33;96477.44;;;10.01;100.00
26937;BME280;14495;48.116;11.676;2022-10-28T00:31:05;96482.28;;;9.90;100.00
26937;BME280;14495;48.116;11.676;2022-10-28T00:33:31;96484.28;;;9.85;100.00
26937;BME280;14495;48.116;11.676;2022-10-28T00:36:13;96486.13;;;9.83;100.00
26937;BME280;14495;48.116;11.676;2022-10-28T00:38:39;96481.31;;;9.93;100.00
26937;BME280;14495;48.116;11.676;2022-10-28T00:41:05;96479.47;;;9.95;100.00
26937;BME280;14495;48.116;11.676;2022-10-28T00:49:02;96473.19;;;9.99;100.00
26937;BME280;14495;48.116;11.676;2022-10-28T00:51:30;96471.63;;;9.95;100.00
26937;BME280;14495;48.116;11.676;2022-10-28T00:53:58;96464.38;;;10.01;100.00
26937;BME280;14495;48.116;11.676;2022-10-28T00:56:25;96457.59;;;9.97;100.00
26937;BME280;14495;48.116;11.676;2022-10-28T00:58:54;96462.53;;;9.84;100.00
26937;BME280;14495;48.116;11.676;2022-10-28T01:01:21;96456.69;;;9.79;100.00
26937;BME280;14495;48.116;11.676;2022-10-28T01:03:46;96453.38;;;9.76;100.00
26937;BME280;14495;48.116;11.676;2022-10-28T01:06:12;96454.16;;;9.78;100.00
26937;BME280;14495;48.116;11.676;2022-10-28T01:08:38;96451.81;;;9.91;100.00
26937;BME280;14495;48.116;11.676;2022-10-28T01:11:24;96455.91;;;9.96;100.00
26937;BME280;14495;48.116;11.676;2022-10-28T01:16:44;96452.09;;;10.03;100.00
26937;BME280;14495;48.116;11.676;2022-10-28T01:22:18;96441.38;;;9.91;100.00
26937;BME280;14495;48.116;11.676;2022-10-28T01:24:55;96437.50;;;9.80;100.00
26937;BME280;14495;48.116;11.676;2022-10-28T01:30:14;96448.94;;;9.78;100.00
26937;BME280;14495;48.116;11.676;2022-10-28T01:33:07;96443.66;;;9.79;100.00
26937;BME280;14495;48.116;11.676;2022-10-28T01:35:48;96445.81;;;9.70;100.00
26937;BME280;14495;48.116;11.676;2022-10-28T01:38:31;96441.53;;;9.68;100.00
26937;BME280;14495;48.116;11.676;2022-10-28T01:41:21;96442.50;;;9.66;100.00
26937;BME280;14495;48.116;11.676;2022-10-28T01:46:40;96448.56;;;9.66;100.00
26937;BME280;14495;48.116;11.676;2022-10-28T01:49:33;96454.63;;;9.67;100.00
26937;BME280;14495;48.116;11.676;2022-10-28T01:52:05;96451.44;;;9.60;100.00
26937;BME280;14495;48.116;11.676;2022-10-28T01:54:33;96447.16;;;9.59;100.00
26937;BME280;14495;48.116;11.676;2022-10-28T01:57:02;96443.78;;;9.57;100.00
26937;BME280;14495;48.116;11.676;2022-10-28T01:59:29;96442.63;;;9.44;100.00
26937;BME280;14495;48.116;11.676;2022-10-28T02:01:56;96444.31;;;9.45;100.00
26937;BME280;14495;48.116;11.676;2022-10-28T02:04:21;96442.63;;;9.44;100.00
26937;BME280;14495;48.116;11.676;2022-10-28T02:06:51;96442.75;;;9.41;100.00
26937;BME280;14495;48.116;11.676;2022-10-28T02:10:10;96442.47;;;9.47;100.00
26937;BME280;14495;48.116;11.676;2022-10-28T02:12:33;96437.13;;;9.50;100.00
26937;BME280;14495;48.116;11.676;2022-10-28T02:20:58;96441.38;;;9.72;100.00
26937;BME280;14495;48.116;11.676;2022-10-28T02:23:47;96439.31;;;9.78;100.00
26937;BME280;14495;48.116;11.676;2022-10-28T02:26:18;96432.34;;;9.79;100.00
26937;BME280;14495;48.116;11.676;2022-10-28T02:28:53;96434.47;;;9.71;100.00
26937;BME280;14495;48.116;11.676;2022-10-28T02:31:28;96436.72;;;9.78;100.00
26937;BME280;14495;48.116;11.676;2022-10-28T02:33:58;96430.94;;;9.72;100.00
26937;BME280;14495;48.116;11.676;2022-10-28T02:36:26;96433.47;;;9.73;100.00
26937;BME280;14495;48.116;11.676;2022-10-28T02:38:54;96437.97;;;9.70;100.00
26937;BME280;14495;48.116;11.676;2022-10-28T02:41:25;96436.50;;;9.64;100.00
26937;BME280;14495;48.116;11.676;2022-10-28T02:44:10;96435.00;;;9.58;100.00
26937;BME280;14495;48.116;11.676;2022-10-28T02:46:40;96431.78;;;9.53;100.00
26937;BME280;14495;48.116;11.676;2022-10-28T02:49:09;96433.75;;;9.48;100.00
26937;BME280;14495;48.116;11.676;2022-10-28T02:51:40;96435.13;;;9.36;100.00
26937;BME280;14495;48.116;11.676;2022-10-28T02:54:13;96433.44;;;9.35;100.00
26937;BME280;14495;48.116;11.676;2022-10-28T02:56:52;96432.63;;;9.35;100.00
26937;BME280;14495;48.116;11.676;2022-10-28T02:59:19;96426.94;;;9.25;100.00
26937;BME280;14495;48.116;11.676;2022-10-28T03:01:47;96424.19;;;9.28;100.00
26937;BME280;14495;48.116;11.676;2022-10-28T03:04:12;96424.97;;;9.30;100.00
26937;BME280;14495;48.116;11.676;2022-10-28T03:06:37;96427.25;;;9.38;100.00
26937;BME280;14495;48.116;11.676;2022-10-28T03:09:03;96427.25;;;9.38;100.00
26937;BME280;14495;48.116;11.676;2022-10-28T03:11:28;96420.19;;;9.40;100.00
26937;BME280;14495;48.116;11.676;2022-10-28T03:13:53;96422.59;;;9.44;100.00
26937;BME280;14495;48.116;11.676;2022-10-28T03:16:19;96426.13;;;9.43;100.00
26937;BME280;14495;48.116;11.676;2022-10-28T03:18:44;96425.41;;;9.40;100.00
26937;BME280;14495;48.116;11.676;2022-10-28T03:21:09;96417.66;;;9.38;100.00
26937;BME280;14495;48.116;11.676;2022-10-28T03:23:34;96415.56;;;9.46;100.00
26937;BME280;14495;48.116;11.676;2022-10-28T03:26:00;96418.16;;;9.46;100.00
26937;BME280;14495;48.116;11.676;2022-10-28T03:28:25;96428.31;;;9.53;100.00
26937;BME280;14495;48.116;11.676;2022-10-28T03:30:50;96420.06;;;9.43;100.00
26937;BME280;14495;48.116;11.676;2022-10-28T03:33:16;96424.88;;;9.52;100.00
26937;BME280;14495;48.116;11.676;2022-10-28T03:35:41;96420.72;;;9.48;100.00
26937;BME280;14495;48.116;11.676;2022-10-28T03:38:06;96433.59;;;9.51;100.00
26937;BME280;14495;48.116;11.676;2022-10-28T03:40:32;96426.56;;;9.53;100.00
26937;BME280;14495;48.116;11.676;2022-10-28T03:42:58;96421.34;;;9.53;100.00
26937;BME280;14495;48.116;11.676;2022-10-28T03:45:23;96419.78;;;9.49;100.00
26937;BME280;14495;48.116;11.676;2022-10-28T03:47:49;96424.38;;;9.44;100.00
26937;BME280;14495;48.116;11.676;2022-10-28T03:50:14;96424.78;;;9.35;100.00
26937;BME280;14495;48.116;11.676;2022-10-28T03:52:41;96424.28;;;9.26;100.00
26937;BME280;14495;48.116;11.676;2022-10-28T03:55:08;96422.19;;;9.35;100.00
26937;BME280;14495;48.116;11.676;2022-10-28T03:57:33;96419.75;;;9.30;100.00
26937;BME280;14495;48.116;11.676;2022-10-28T03:59:58;96420.75;;;9.27;100.00
26937;BME280;14495;48.116;11.676;2022-10-28T04:02:24;96415.97;;;9.37;100.00
26937;BME280;14495;48.116;11.676;2022-10-28T04:04:50;96425.00;;;9.49;100.00
26937;BME280;14495;48.116;11.676;2022-10-28T04:07:16;96426.88;;;9.45;100.00
26937;BME280;14495;48.116;11.676;2022-10-28T04:09:41;96423.78;;;9.37;100.00
26937;BME280;14495;48.116;11.676;2022-10-28T04:12:08;96426.13;;;9.43;100.00
26937;BME280;14495;48.116;11.676;2022-10-28T04:14:34;96426.81;;;9.47;100.00
26937;BME280;14495;48.116;11.676;2022-10-28T04:17:00;96424.22;;;9.47;100.00
26937;BME280;14495;48.116;11.676;2022-10-28T04:19:25;96422.03;;;9.38;100.00
26937;BME280;14495;48.116;11.676;2022-10-28T04:21:50;96426.06;;;9.45;100.00
26937;BME280;14495;48.116;11.676;2022-10-28T04:24:15;96424.50;;;9.41;100.00
26937;BME280;14495;48.116;11.676;2022-10-28T04:26:41;96420.34;;;9.37;100.00
26937;BME280;14495;48.116;11.676;2022-10-28T04:29:06;96425.69;;;9.34;100.00
26937;BME280;14495;48.116;11.676;2022-10-28T04:31:31;96422.97;;;9.37;100.00
26937;BME280;14495;48.116;11.676;2022-10-28T04:33:57;96422.19;;;9.35;100.00
26937;BME280;14495;48.116;11.676;2022-10-28T04:36:22;96420.59;;;9.31;100.00
26937;BME280;14495;48.116;11.676;2022-10-28T04:38:47;96427.13;;;9.41;100.00
26937;BME280;14495;48.116;11.676;2022-10-28T04:41:16;96421.78;;;9.44;100.00
26937;BME280;14495;48.116;11.676;2022-10-28T04:43:41;96421.78;;;9.44;100.00
26937;BME280;14495;48.116;11.676;2022-10-28T04:46:06;96428.06;;;9.38;100.00
26937;BME280;14495;48.116;11.676;2022-10-28T04:48:32;96427.81;;;9.25;100.00
26937;BME280;14495;48.116;11.676;2022-10-28T04:50:57;96423.00;;;9.16;100.00
26937;BME280;14495;48.116;11.676;2022-10-28T04:53:23;96420.59;;;9.31;100.00
26937;BME280;14495;48.116;11.676;2022-10-28T04:55:48;96424.66;;;9.17;100.00
26937;BME280;14495;48.116;11.676;2022-10-28T04:58:13;96416.66;;;9.22;100.00
26937;BME280;14495;48.116;11.676;2022-10-28T05:00:39;96415.53;;;9.27;100.00
26937;BME280;14495;48.116;11.676;2022-10-28T05:03:04;96421.91;;;9.41;100.00
26937;BME280;14495;48.116;11.676;2022-10-28T05:05:30;96416.03;;;9.36;100.00
26937;BME280;14495;48.116;11.676;2022-10-28T05:07:55;96421.78;;;9.44;100.00
26937;BME280;14495;48.116;11.676;2022-10-28T05:10:20;96414.84;;;9.43;100.00
26937;BME280;14495;48.116;11.676;2022-10-28T05:12:46;96415.69;;;9.43;100.00
26937;BME280;14495;48.116;11.676;2022-10-28T05:15:12;96411.88;;;9.51;100.00
26937;BME280;14495;48.116;11.676;2022-10-28T05:17:39;96414.44;;;9.52;100.00
26937;BME280;14495;48.116;11.676;2022-10-28T05:20:05;96412.88;;;9.48;100.00
26937;BME280;14495;48.116;11.676;2022-10-28T05:22:31;96414.84;;;9.43;100.00
26937;BME280;14495;48.116;11.676;2022-10-28T05:24:56;96403.28;;;9.29;100.00
26937;BME280;14495;48.116;11.676;2022-10-28T05:27:22;96409.88;;;9.18;100.00
26937;BME280;14495;48.116;11.676;2022-10-28T05:29:47;96410.72;;;9.18;100.00
26937;BME280;14495;48.116;11.676;2022-10-28T05:32:12;96403.69;;;9.20;100.00
26937;BME280;14495;48.116;11.676;2022-10-28T05:34:38;96406.16;;;9.03;100.00
26937;BME280;14495;48.116;11.676;2022-10-28T05:37:03;96406.81;;;9.08;100.00
26937;BME280;14495;48.116;11.676;2022-10-28T05:39:28;96406.94;;;9.25;100.00
26937;BME280;14495;48.116;11.676;2022-10-28T05:41:53;96406.38;;;9.38;100.00
26937;BME280;14495;48.116;11.676;2022-10-28T05:44:20;96406.59;;;9.52;100.00
26937;BME280;14495;48.116;11.676;2022-10-28T05:46:45;96403.69;;;9.58;100.00
26937;BME280;14495;48.116;11.676;2022-10-28T05:49:10;96406.19;;;9.61;100.00
26937;BME280;14495;48.116;11.676;2022-10-28T05:51:35;96414.44;;;9.71;100.00
26937;BME280;14495;48.116;11.676;2022-10-28T05:54:01;96409.13;;;9.73;100.00
26937;BME280;14495;48.116;11.676;2022-10-28T05:56:26;96411.75;;;10.28;100.00
26937;BME280;14495;48.116;11.676;2022-10-28T05:58:51;96409.50;;;10.20;100.00
26937;BME280;14495;48.116;11.676;2022-10-28T06:01:17;96406.56;;;10.45;100.00
26937;BME280;14495;48.116;11.676;2022-10-28T06:03:42;96408.50;;;10.59;100.00
26937;BME280;14495;48.116;11.676;2022-10-28T06:06:07;96406.56;;;10.45;100.00
26937;BME280;14495;48.116;11.676;2022-10-28T06:08:32;96404.44;;;10.54;100.00
26937;BME280;14495;48.116;11.676;2022-10-28T06:10:58;96409.47;;;10.92;100.00
26937;BME280;14495;48.116;11.676;2022-10-28T06:13:23;96414.63;;;10.93;100.00
26937;BME280;14495;48.116;11.676;2022-10-28T06:15:53;96417.03;;;10.63;100.00
26937;BME280;14495;48.116;11.676;2022-10-28T06:18:21;96412.56;;;10.82;100.00
26937;BME280;14495;48.116;11.676;2022-10-28T06:20:51;96419.34;;;10.69;100.00
26937;BME280;14495;48.116;11.676;2022-10-28T06:23:17;96420.91;;;11.07;100.00
26937;BME280;14495;48.116;11.676;2022-10-28T06:25:43;96424.34;;;10.91;100.00
26937;BME280;14495;48.116;11.676;2022-10-28T06:28:08;96431.31;;;11.08;100.00
26937;BME280;14495;48.116;11.676;2022-10-28T06:30:34;96430.25;;;11.12;100.00
26937;BME280;14495;48.116;11.676;2022-10-28T06:32:59;96425.81;;;11.30;100.00
26937;BME280;14495;48.116;11.676;2022-10-28T06:35:25;96436.25;;;11.14;100.00
26937;BME280;14495;48.116;11.676;2022-10-28T06:37:54;96434.13;;;11.21;100.00
26937;BME280;14495;48.116;11.676;2022-10-28T06:40:20;96433.84;;;11.10;100.00
26937;BME280;14495;48.116;11.676;2022-10-28T06:42:45;96435.47;;;11.12;100.00
26937;BME280;14495;48.116;11.676;2022-10-28T06:45:11;96434.22;;;11.19;100.00
26937;BME280;14495;48.116;11.676;2022-10-28T06:47:36;96439.38;;;11.21;100.00
26937;BME280;14495;48.116;11.676;2022-10-28T06:50:01;96437.91;;;11.33;100.00
26937;BME280;14495;48.116;11.676;2022-10-28T06:52:27;96442.81;;;11.21;100.00
26937;BME280;14495;48.116;11.676;2022-10-28T06:54:52;96436.81;;;11.37;100.00
26937;BME280;14495;48.116;11.676;2022-10-28T06:57:17;96437.09;;;11.48;100.00
26937;BME280;14495;48.116;11.676;2022-10-28T06:59:43;96435.66;;;11.58;100.00
26937;BME280;14495;48.116;11.676;2022-10-28T07:02:09;96444.13;;;11.64;100.00
26937;BME280;14495;48.116;11.676;2022-10-28T07:04:35;96440.16;;;11.72;100.00
26937;BME280;14495;48.116;11.676;2022-10-28T07:07:01;96440.75;;;11.61;100.00
26937;BME280;14495;48.116;11.676;2022-10-28T07:09:26;96437.72;;;11.85;100.00
26937;BME280;14495;48.116;11.676;2022-10-28T07:11:51;96440.91;;;12.08;100.00
26937;BME280;14495;48.116;11.676;2022-10-28T07:14:17;96447.81;;;12.25;100.00
26937;BME280;14495;48.116;11.676;2022-10-28T07:16:42;96450.59;;;12.53;100.00
26937;BME280;14495;48.116;11.676;2022-10-28T07:19:08;96452.31;;;12.69;100.00
26937;BME280;14495;48.116;11.676;2022-10-28T07:21:34;96455.56;;;12.88;100.00
26937;BME280;14495;48.116;11.676;2022-10-28T07:23:59;96453.66;;;12.76;100.00
26937;BME280;14495;48.116;11.676;2022-10-28T07:26:25;96459.97;;;12.88;100.00
26937;BME280;14495;48.116;11.676;2022-10-28T07:28:50;96459.16;;;13.02;100.00
26937;BME280;14495;48.116;11.676;2022-10-28T07:31:16;96468.19;;;13.26;100.00
26937;BME280;14495;48.116;11.676;2022-10-28T07:33:41;96472.56;;;13.42;100.00
26937;BME280;14495;48.116;11.676;2022-10-28T07:36:07;96472.59;;;13.70;100.00
26937;BME280;14495;48.116;11.676;2022-10-28T07:38:33;96476.63;;;13.90;100.00
26937;BME280;14495;48.116;11.676;2022-10-28T07:41:02;96476.13;;;14.13;100.00
26937;BME280;14495;48.116;11.676;2022-10-28T07:43:28;96480.47;;;14.41;100.00
26937;BME280;14495;48.116;11.676;2022-10-28T07:45:58;96477.22;;;14.64;100.00
26937;BME280;14495;48.116;11.676;2022-10-28T07:48:23;96469.47;;;14.76;100.00
26937;BME280;14495;48.116;11.676;2022-10-28T07:50:48;96475.72;;;14.87;100.00
26937;BME280;14495;48.116;11.676;2022-10-28T07:53:13;96480.84;;;15.16;100.00
26937;BME280;14495;48.116;11.676;2022-10-28T07:55:39;96474.34;;;15.48;100.00
26937;BME280;14495;48.116;11.676;2022-10-28T07:58:04;96481.19;;;15.63;100.00
26937;BME280;14495;48.116;11.676;2022-10-28T08:00:29;96479.22;;;15.79;100.00
26937;BME280;14495;48.116;11.676;2022-10-28T08:02:55;96475.28;;;15.98;100.00
26937;BME280;14495;48.116;11.676;2022-10-28T08:05:20;96478.53;;;16.51;100.00
26937;BME280;14495;48.116;11.676;2022-10-28T08:07:45;96475.88;;;16.51;100.00
26937;BME280;14495;48.116;11.676;2022-10-28T08:10:12;96471.66;;;16.73;95.24
26937;BME280;14495;48.116;11.676;2022-10-28T08:12:37;96475.91;;;16.99;92.85
26937;BME280;14495;48.116;11.676;2022-10-28T08:15:03;96475.28;;;17.31;89.34
26937;BME280;14495;48.116;11.676;2022-10-28T08:17:28;96472.69;;;17.54;84.57
26937;BME280;14495;48.116;11.676;2022-10-28T08:19:54;96476.72;;;17.93;84.22
26937;BME280;14495;48.116;11.676;2022-10-28T08:22:19;96472.47;;;18.25;79.33
26937;BME280;14495;48.116;11.676;2022-10-28T08:24:44;96481.28;;;18.69;76.44
26937;BME280;14495;48.116;11.676;2022-10-28T08:27:09;96473.53;;;19.21;75.33
26937;BME280;14495;48.116;11.676;2022-10-28T08:29:35;96474.78;;;19.59;69.73
26937;BME280;14495;48.116;11.676;2022-10-28T08:32:00;96469.47;;;20.11;66.18
26937;BME280;14495;48.116;11.676;2022-10-28T08:34:25;96469.41;;;20.92;61.55
26937;BME280;14495;48.116;11.676;2022-10-28T08:36:54;96465.78;;;22.26;59.06
26937;BME280;14495;48.116;11.676;2022-10-28T08:39:20;96468.03;;;22.76;55.63
26937;BME280;14495;48.116;11.676;2022-10-28T08:41:50;96464.06;;;23.52;52.93
26937;BME280;14495;48.116;11.676;2022-10-28T08:47:16;96455.69;;;24.77;49.19
26937;BME280;14495;48.116;11.676;2022-10-28T08:49:44;96462.38;;;24.81;47.22
26937;BME280;14495;48.116;11.676;2022-10-28T08:57:47;96465.78;;;22.26;51.60
26937;BME280;14495;48.116;11.676;2022-10-28T09:00:27;96458.47;;;21.14;55.20
26937;BME280;14495;48.116;11.676;2022-10-28T09:03:00;96455.41;;;20.90;56.85
26937;BME280;14495;48.116;11.676;2022-10-28T09:05:29;96462.13;;;20.84;60.03
26937;BME280;14495;48.116;11.676;2022-10-28T09:07:56;96463.47;;;20.18;59.80
26937;BME280;14495;48.116;11.676;2022-10-28T09:10:40;96469.63;;;20.19;61.77
26937;BME280;14495;48.116;11.676;2022-10-28T09:18:51;96461.47;;;20.51;63.83
26937;BME280;14495;48.116;11.676;2022-10-28T09:21:30;96461.13;;;20.95;63.09
26937;BME280;14495;48.116;11.676;2022-10-28T09:23:58;96475.25;;;21.54;62.98
26937;BME280;14495;48.116;11.676;2022-10-28T09:26:46;96472.13;;;21.68;59.97
26937;BME280;14495;48.116;11.676;2022-10-28T09:32:00;96464.91;;;22.35;57.91
26937;BME280;14495;48.116;11.676;2022-10-28T09:35:00;96464.91;;;22.81;57.14
26937;BME280;14495;48.116;11.676;2022-10-28T09:37:52;96458.56;;;22.64;56.73
26937;BME280;14495;48.116;11.676;2022-10-28T09:40:23;96472.50;;;22.20;58.15
26937;BME280;14495;48.116;11.676;2022-10-28T09:43:08;96464.66;;;22.29;59.13
26937;BME280;14495;48.116;11.676;2022-10-28T09:45:36;96458.34;;;21.92;59.90
26937;BME280;14495;48.116;11.676;2022-10-28T09:48:18;96466.31;;;22.30;60.73
26937;BME280;14495;48.116;11.676;2022-10-28T09:50:44;96459.78;;;24.12;54.85
26937;BME280;14495;48.116;11.676;2022-10-28T09:53:38;96458.81;;;24.64;53.07
26937;BME280;14495;48.116;11.676;2022-10-28T09:56:05;96460.16;;;24.60;53.10
26937;BME280;14495;48.116;11.676;2022-10-28T09:58:34;96462.75;;;24.43;53.33
26937;BME280;14495;48.116;11.676;2022-10-28T10:01:02;96456.50;;;24.69;52.39
26937;BME280;14495;48.116;11.676;2022-10-28T10:03:28;96459.09;;;25.69;49.59
26937;BME280;14495;48.116;11.676;2022-10-28T10:05:55;96462.03;;;26.47;47.35
26937;BME280;14495;48.116;11.676;2022-10-28T10:08:21;96458.31;;;28.39;43.80
26937;BME280;14495;48.116;11.676;2022-10-28T10:10:58;96464.75;;;28.38;43.08
26937;BME280;14495;48.116;11.676;2022-10-28T10:13:28;96465.03;;;28.58;42.70
26937;BME280;14495;48.116;11.676;2022-10-28T10:16:03;96454.84;;;28.90;41.51
26937;BME280;14495;48.116;11.676;2022-10-28T10:18:31;96454.81;;;29.26;41.50
26937;BME280;14495;48.116;11.676;2022-10-28T10:20:59;96451.44;;;29.67;39.75
26937;BME280;14495;48.116;11.676;2022-10-28T10:23:30;96449.09;;;29.36;40.76
26937;BME280;14495;48.116;11.676;2022-10-28T10:26:09;96462.75;;;30.48;38.91
26937;BME280;14495;48.116;11.676;2022-10-28T10:28:38;96451.56;;;30.51;39.27
26937;BME280;14495;48.116;11.676;2022-10-28T10:31:07;96452.34;;;29.53;39.58
26937;BME280;14495;48.116;11.676;2022-10-28T10:33:40;96445.31;;;28.87;40.49
26937;BME280;14495;48.116;11.676;2022-10-28T10:38:34;96450.50;;;30.10;39.32
26937;BME280;14495;48.116;11.676;2022-10-28T10:41:00;96439.03;;;30.01;39.24
26937;BME280;14495;48.116;11.676;2022-10-28T10:48:22;96444.31;;;30.51;38.73
26937;BME280;14495;48.116;11.676;2022-10-28T10:50:48;96446.09;;;30.86;39.12
26937;BME280;14495;48.116;11.676;2022-10-28T10:53:26;96440.25;;;29.71;39.48
26937;BME280;14495;48.116;11.676;2022-10-28T10:56:03;96436.56;;;29.50;39.58
26937;BME280;14495;48.116;11.676;2022-10-28T10:58:32;96433.25;;;28.32;41.11
26937;BME280;14495;48.116;11.676;2022-10-28T11:01:01;96428.34;;;26.21;44.66
26937;BME280;14495;48.116;11.676;2022-10-28T11:03:30;96419.56;;;25.88;45.78
26937;BME280;14495;48.116;11.676;2022-10-28T11:05:59;96424.53;;;26.07;44.17
26937;BME280;14495;48.116;11.676;2022-10-28T11:08:37;96417.97;;;25.45;45.58
26937;BME280;14495;48.116;11.676;2022-10-28T11:11:17;96422.44;;;25.04;48.49
26937;BME280;14495;48.116;11.676;2022-10-28T11:13:44;96412.59;;;24.88;49.87
26937;BME280;14495;48.116;11.676;2022-10-28T11:16:23;96416.78;;;24.99;50.22
26937;BME280;14495;48.116;11.676;2022-10-28T11:18:52;96410.19;;;24.52;49.88
26937;BME280;14495;48.116;11.676;2022-10-28T11:21:32;96406.09;;;24.31;49.99
26937;BME280;14495;48.116;11.676;2022-10-28T11:26:49;96405.53;;;24.11;51.44
26937;BME280;14495;48.116;11.676;2022-10-28T11:29:16;96407.94;;;24.31;51.53
26937;BME280;14495;48.116;11.676;2022-10-28T11:32:11;96402.19;;;25.67;48.60
26937;BME280;14495;48.116;11.676;2022-10-28T11:37:57;96393.91;;;29.47;41.53
26937;BME280;14495;48.116;11.676;2022-10-28T11:43:37;96384.50;;;29.36;43.33
26937;BME280;14495;48.116;11.676;2022-10-28T11:58:12;96379.91;;;29.86;42.91
26937;BME280;14495;48.116;11.676;2022-10-28T12:06:19;96371.56;;;30.71;41.40
26937;BME280;14495;48.116;11.676;2022-10-28T12:12:01;96366.66;;;31.15;38.91
26937;BME280;14495;48.116;11.676;2022-10-28T12:14:39;96358.34;;;31.36;38.90
26937;BME280;14495;48.116;11.676;2022-10-28T12:17:15;96358.22;;;30.50;39.69
26937;BME280;14495;48.116;11.676;2022-10-28T12:19:47;96358.31;;;30.90;39.04
26937;BME280;14495;48.116;11.676;2022-10-28T12:22:22;96358.09;;;30.84;39.35
26937;BME280;14495;48.116;11.676;2022-10-28T12:24:51;96356.28;;;30.92;38.75
26937;BME280;14495;48.116;11.676;2022-10-28T12:27:23;96352.03;;;30.56;38.86
26937;BME280;14495;48.116;11.676;2022-10-28T12:29:58;96349.50;;;29.99;39.35
26937;BME280;14495;48.116;11.676;2022-10-28T12:32:28;96350.44;;;28.57;41.62
26937;BME280;14495;48.116;11.676;2022-10-28T12:35:05;96341.25;;;27.41;44.48
26937;BME280;14495;48.116;11.676;2022-10-28T12:37:38;96341.97;;;26.19;46.61
26937;BME280;14495;48.116;11.676;2022-10-28T12:42:41;96346.19;;;25.65;48.58
26937;BME280;14495;48.116;11.676;2022-10-28T12:45:13;96343.75;;;25.87;48.55
26937;BME280;14495;48.116;11.676;2022-10-28T12:47:59;96337.38;;;25.96;48.63
26937;BME280;14495;48.116;11.676;2022-10-28T12:53:35;96342.38;;;25.60;47.90
26937;BME280;14495;48.116;11.676;2022-10-28T12:56:30;96330.38;;;25.87;47.73
26937;BME280;14495;48.116;11.676;2022-10-28T12:59:03;96335.47;;;26.13;48.24
26937;BME280;14495;48.116;11.676;2022-10-28T13:01:31;96344.84;;;26.17;47.52
26937;BME280;14495;48.116;11.676;2022-10-28T13:03:57;96338.69;;;25.53;48.15
26937;BME280;14495;48.116;11.676;2022-10-28T13:25:55;96327.63;;;24.16;51.70
26937;BME280;14495;48.116;11.676;2022-10-28T13:28:21;96330.66;;;24.21;53.07
26937;BME280;14495;48.116;11.676;2022-10-28T13:30:52;96324.63;;;24.19;52.47
26937;BME280;14495;48.116;11.676;2022-10-28T13:33:23;96325.56;;;24.02;53.54
26937;BME280;14495;48.116;11.676;2022-10-28T13:35:49;96321.56;;;24.06;52.89
26937;BME280;14495;48.116;11.676;2022-10-28T13:38:19;96317.41;;;24.03;53.33
26937;BME280;14495;48.116;11.676;2022-10-28T13:43:19;96328.84;;;23.87;54.78
26937;BME280;14495;48.116;11.676;2022-10-28T13:45:52;96324.53;;;23.95;55.10
26937;BME280;14495;48.116;11.676;2022-10-28T13:53:57;96318.22;;;23.96;55.85
26937;BME280;14495;48.116;11.676;2022-10-28T13:56:28;96314.53;;;23.88;56.13
26937;BME280;14495;48.116;11.676;2022-10-28T13:58:58;96317.56;;;23.93;56.00
26937;BME280;14495;48.116;11.676;2022-10-28T14:02:12;96319.19;;;23.86;54.99
26937;BME280;14495;48.116;11.676;2022-10-28T14:04:30;96323.59;;;23.69;55.79
26937;BME280;14495;48.116;11.676;2022-10-28T14:09:34;96314.03;;;23.59;54.53
26937;BME280;14495;48.116;11.676;2022-10-28T14:15:17;96325.06;;;23.29;55.97
26937;BME280;14495;48.116;11.676;2022-10-28T14:17:47;96325.34;;;23.26;56.53
26937;BME280;14495;48.116;11.676;2022-10-28T14:21:14;96322.44;;;23.11;56.68
26937;BME280;14495;48.116;11.676;2022-10-28T14:26:07;96326.00;;;23.20;58.85
26937;BME280;14495;48.116;11.676;2022-10-28T14:33:38;96335.94;;;22.92;60.04
26937;BME280;14495;48.116;11.676;2022-10-28T14:39:15;96336.91;;;22.91;62.59
26937;BME280;14495;48.116;11.676;2022-10-28T14:44:27;96324.63;;;22.72;63.16
26937;BME280;14495;48.116;11.676;2022-10-28T14:47:07;96323.41;;;22.66;65.99
26937;BME280;14495;48.116;11.676;2022-10-28T14:49:54;96319.25;;;22.46;65.72
26937;BME280;14495;48.116;11.676;2022-10-28T14:52:21;96327.59;;;22.33;66.73
26937;BME280;14495;48.116;11.676;2022-10-28T14:54:50;96323.44;;;22.20;67.73
26937;BME280;14495;48.116;11.676;2022-10-28T14:57:16;96327.69;;;22.13;70.16
26937;BME280;14495;48.116;11.676;2022-10-28T14:59:48;96331.03;;;21.97;71.19
26937;BME280;14495;48.116;11.676;2022-10-28T15:02:22;96318.41;;;21.99;70.73
26937;BME280;14495;48.116;11.676;2022-10-28T15:07:23;96325.13;;;21.76;73.44
26937;BME280;14495;48.116;11.676;2022-10-28T15:09:48;96327.69;;;21.68;73.84
26937;BME280;14495;48.116;11.676;2022-10-28T15:12:18;96331.22;;;21.58;76.10